createdAt,value
2022-09-01T00:00:03.913Z,13.60
2022-09-01T00:02:31.083Z,13.50
2022-09-01T00:04:58.439Z,13.50
2022-09-01T00:07:30.286Z,13.50
2022-09-01T00:09:59.165Z,13.40
2022-09-01T00:12:27.596Z,13.40
2022-09-01T00:14:54.551Z,13.30
2022-09-01T00:17:21.307Z,13.20
2022-09-01T00:19:48.109Z,13.10
2022-09-01T00:22:14.764Z,13.20
2022-09-01T00:24:41.973Z,13.10
2022-09-01T00:27:08.796Z,13.10
2022-09-01T00:29:36.335Z,13.00
2022-09-01T00:32:04.085Z,13.00
2022-09-01T00:34:30.868Z,13.00
2022-09-01T00:37:00.001Z,12.90
2022-09-01T00:39:26.717Z,12.90
2022-09-01T00:41:53.692Z,12.90
2022-09-01T00:44:24.391Z,12.90
2022-09-01T00:46:55.858Z,12.90
2022-09-01T00:49:36.975Z,12.80
2022-09-01T00:52:27.400Z,12.70
2022-09-01T00:55:00.073Z,12.70
2022-09-01T00:57:27.723Z,12.70
2022-09-01T01:00:04.556Z,12.70
2022-09-01T01:02:31.316Z,12.70
2022-09-01T01:05:00.702Z,12.70
2022-09-01T01:07:28.806Z,12.70
2022-09-01T01:09:56.066Z,12.70
2022-09-01T01:12:23.712Z,12.60
2022-09-01T01:14:51.088Z,12.60
2022-09-01T01:17:23.319Z,12.50
2022-09-01T01:20:15.056Z,12.50
2022-09-01T01:23:16.595Z,12.50
2022-09-01T01:25:57.716Z,12.50
2022-09-01T01:28:35.589Z,12.40
2022-09-01T01:31:13.709Z,12.50
2022-09-01T01:33:49.142Z,12.50
2022-09-01T01:36:32.386Z,12.50
2022-09-01T01:39:10.587Z,12.50
2022-09-01T01:41:42.102Z,12.40
2022-09-01T01:44:12.062Z,12.40
2022-09-01T01:46:45.021Z,12.40
2022-09-01T01:49:18.841Z,12.30
2022-09-01T01:51:47.733Z,12.30
2022-09-01T01:54:17.194Z,12.30
2022-09-01T01:56:46.002Z,12.20
2022-09-01T01:59:14.776Z,12.20
2022-09-01T02:01:43.834Z,12.30
2022-09-01T02:04:11.895Z,12.20
2022-09-01T02:06:45.803Z,12.20
2022-09-01T02:09:20.693Z,12.20
2022-09-01T02:11:47.948Z,12.10
2022-09-01T02:14:20.431Z,12.10
2022-09-01T02:16:47.611Z,12.10
2022-09-01T02:19:14.850Z,12.00
2022-09-01T02:21:44.577Z,12.00
2022-09-01T02:24:12.870Z,12.00
2022-09-01T02:26:45.790Z,11.90
2022-09-01T02:29:18.990Z,11.90
2022-09-01T02:31:51.980Z,11.90
2022-09-01T02:34:20.376Z,11.90
2022-09-01T02:36:51.734Z,11.80
2022-09-01T02:39:26.502Z,11.90
2022-09-01T02:41:53.791Z,11.80
2022-09-01T02:44:22.108Z,11.80
2022-09-01T02:46:50.754Z,11.80
2022-09-01T02:49:28.223Z,11.80
2022-09-01T02:52:01.179Z,11.70
2022-09-01T02:54:29.850Z,11.70
2022-09-01T02:56:57.010Z,11.70
2022-09-01T02:59:28.748Z,11.70
2022-09-01T03:01:57.382Z,11.70
2022-09-01T03:04:24.769Z,11.70
2022-09-01T03:06:54.704Z,11.70
2022-09-01T03:09:22.094Z,11.70
2022-09-01T03:11:52.435Z,11.80
2022-09-01T03:14:20.718Z,11.80
2022-09-01T03:16:48.181Z,11.80
2022-09-01T03:19:15.346Z,11.80
2022-09-01T03:21:44.467Z,11.80
2022-09-01T03:24:16.749Z,11.80
2022-09-01T03:26:45.010Z,11.80
2022-09-01T03:29:17.030Z,11.90
2022-09-01T03:31:43.881Z,11.90
2022-09-01T03:34:11.060Z,11.90
2022-09-01T03:36:38.238Z,12.00
2022-09-01T03:39:05.242Z,12.00
2022-09-01T03:41:32.634Z,12.10
2022-09-01T03:43:59.878Z,12.10
2022-09-01T03:46:34.256Z,12.20
2022-09-01T03:49:07.052Z,12.30
2022-09-01T03:51:37.936Z,12.40
2022-09-01T03:54:05.202Z,12.40
2022-09-01T03:56:32.021Z,12.40
2022-09-01T03:59:00.642Z,12.50
2022-09-01T04:01:34.779Z,12.50
2022-09-01T04:04:01.766Z,12.60
2022-09-01T04:06:30.337Z,12.80
2022-09-01T04:09:02.493Z,12.80
2022-09-01T04:11:30.852Z,12.80
2022-09-01T04:13:58.484Z,12.90
2022-09-01T04:16:50.989Z,12.90
2022-09-01T04:19:25.392Z,13.00
2022-09-01T04:21:59.903Z,13.00
2022-09-01T04:24:30.170Z,13.00
2022-09-01T04:27:02.075Z,13.10
2022-09-01T04:29:30.481Z,13.20
2022-09-01T04:32:05.549Z,13.30
2022-09-01T04:34:37.785Z,13.30
2022-09-01T04:37:14.884Z,13.50
2022-09-01T04:39:51.275Z,13.60
2022-09-01T04:42:23.386Z,13.70
2022-09-01T04:44:54.502Z,13.70
2022-09-01T04:47:29.885Z,13.80
2022-09-01T04:50:04.894Z,13.90
2022-09-01T04:52:31.916Z,14.00
2022-09-01T04:54:58.651Z,14.00
2022-09-01T04:57:27.526Z,14.00
2022-09-01T04:59:56.786Z,14.10
2022-09-01T05:02:27.183Z,14.10
2022-09-01T05:04:55.113Z,14.20
2022-09-01T05:07:23.541Z,14.30
2022-09-01T05:09:58.040Z,14.30
2022-09-01T05:12:29.374Z,14.40
2022-09-01T05:14:56.486Z,14.40
2022-09-01T05:17:25.939Z,14.40
2022-09-01T05:19:52.814Z,14.40
2022-09-01T05:22:22.096Z,14.50
2022-09-01T05:24:51.384Z,14.50
2022-09-01T05:27:22.745Z,14.60
2022-09-01T05:29:50.342Z,14.60
2022-09-01T05:32:17.079Z,14.70
2022-09-01T05:34:46.026Z,14.70
2022-09-01T05:37:14.462Z,14.80
2022-09-01T05:39:41.442Z,14.80
2022-09-01T05:42:08.553Z,14.90
2022-09-01T05:44:40.202Z,14.90
2022-09-01T05:47:08.754Z,14.90
2022-09-01T05:49:36.085Z,15.00
2022-09-01T05:52:03.133Z,15.10
2022-09-01T05:54:30.526Z,15.20
2022-09-01T05:57:12.745Z,15.30
2022-09-01T05:59:46.887Z,15.40
2022-09-01T06:02:13.744Z,15.60
2022-09-01T06:04:41.166Z,15.70
2022-09-01T06:07:11.861Z,15.70
2022-09-01T06:09:42.475Z,15.60
2022-09-01T06:12:18.131Z,15.70
2022-09-01T06:14:46.864Z,15.70
2022-09-01T06:17:16.175Z,15.60
2022-09-01T06:19:43.840Z,15.60
2022-09-01T06:22:11.294Z,15.60
2022-09-01T06:24:43.866Z,15.70
2022-09-01T06:27:12.659Z,15.70
2022-09-01T06:29:40.799Z,15.80
2022-09-01T06:32:10.283Z,15.90
2022-09-01T06:34:51.053Z,15.90
2022-09-01T06:37:22.546Z,16.00
2022-09-01T06:39:50.610Z,16.00
2022-09-01T06:42:19.303Z,16.00
2022-09-01T06:44:46.286Z,15.90
2022-09-01T06:47:15.398Z,15.90
2022-09-01T06:49:42.397Z,15.80
2022-09-01T06:52:09.223Z,15.70
2022-09-01T06:54:36.396Z,15.80
2022-09-01T06:59:52.385Z,16.10
2022-09-01T07:02:20.381Z,16.30
2022-09-01T07:04:53.427Z,16.40
2022-09-01T07:10:23.261Z,16.60
2022-09-01T07:13:11.862Z,16.80
2022-09-01T07:18:30.757Z,17.10
2022-09-01T07:21:35.745Z,17.40
2022-09-01T07:23:49.033Z,17.70
2022-09-01T07:26:46.586Z,17.80
2022-09-01T07:29:14.152Z,17.70
2022-09-01T07:31:52.173Z,17.60
2022-09-01T07:34:38.513Z,17.60
2022-09-01T07:39:54.997Z,17.30
2022-09-01T07:45:28.848Z,17.10
2022-09-01T07:47:59.982Z,16.90
2022-09-01T07:53:18.702Z,16.70
2022-09-01T07:55:47.148Z,16.70
2022-09-01T07:58:14.270Z,16.70
2022-09-01T08:00:44.340Z,16.80
2022-09-01T08:03:11.139Z,16.90
2022-09-01T08:05:38.420Z,17.00
2022-09-01T08:08:18.607Z,17.10
2022-09-01T08:10:49.094Z,17.30
2022-09-01T08:13:17.943Z,17.20
2022-09-01T08:18:50.127Z,17.20
2022-09-01T08:21:21.814Z,17.20
2022-09-01T08:23:50.205Z,17.40
2022-09-01T08:26:20.455Z,17.60
2022-09-01T08:28:54.450Z,17.90
2022-09-01T08:31:23.021Z,18.40
2022-09-01T08:33:51.109Z,18.70
2022-09-01T08:36:23.675Z,19.10
2022-09-01T08:38:52.301Z,19.40
2022-09-01T08:41:46.843Z,19.80
2022-09-01T08:44:32.530Z,20.00
2022-09-01T08:47:08.139Z,20.40
2022-09-01T08:49:45.815Z,20.50
2022-09-01T08:52:45.709Z,21.20
2022-09-01T08:55:27.490Z,21.80
2022-09-01T08:57:59.727Z,22.10
2022-09-01T09:00:33.339Z,22.20
2022-09-01T09:03:41.785Z,22.50
2022-09-01T09:06:32.251Z,22.70
2022-09-01T09:09:03.765Z,22.60
2022-09-01T09:11:53.382Z,22.80
2022-09-01T09:14:52.721Z,23.10
2022-09-01T09:17:25.677Z,23.60
2022-09-01T09:19:53.573Z,24.30
2022-09-01T09:22:21.485Z,24.50
2022-09-01T09:25:14.491Z,24.70
2022-09-01T09:27:48.150Z,25.10
2022-09-01T09:30:28.955Z,25.60
2022-09-01T09:35:54.813Z,25.00
2022-09-01T09:38:33.289Z,25.00
2022-09-01T09:41:18.976Z,26.40
2022-09-01T09:44:16.053Z,27.70
2022-09-01T09:46:45.812Z,27.60
2022-09-01T09:49:36.553Z,27.10
2022-09-01T09:52:09.830Z,26.60
2022-09-01T09:54:41.738Z,25.50
2022-09-01T09:57:08.323Z,25.10
2022-09-01T10:00:01.039Z,24.80
2022-09-01T10:02:40.377Z,24.30
2022-09-01T10:05:55.311Z,24.00
2022-09-01T10:08:34.422Z,23.60
2022-09-01T10:11:01.145Z,23.10
2022-09-01T10:13:33.081Z,22.50
2022-09-01T10:16:09.225Z,22.40
2022-09-01T10:18:42.188Z,22.30
2022-09-01T10:21:15.726Z,22.20
2022-09-01T10:23:43.193Z,22.20
2022-09-01T10:26:18.900Z,22.20
2022-09-01T10:29:07.199Z,21.90
2022-09-01T10:31:35.494Z,21.90
2022-09-01T10:34:06.439Z,22.00
2022-09-01T10:36:37.918Z,21.90
2022-09-01T10:39:10.880Z,22.00
2022-09-01T10:41:59.784Z,22.10
2022-09-01T10:44:33.765Z,22.10
2022-09-01T10:47:29.828Z,22.10
2022-09-01T10:50:35.519Z,22.30
2022-09-01T10:53:05.863Z,22.30
2022-09-01T10:55:45.279Z,22.30
2022-09-01T11:02:28.754Z,22.20
2022-09-01T11:04:58.332Z,22.20
2022-09-01T11:07:58.276Z,22.40
2022-09-01T11:10:39.551Z,22.50
2022-09-01T11:13:19.676Z,22.60
2022-09-01T11:15:47.620Z,22.60
2022-09-01T11:18:30.656Z,22.50
2022-09-01T11:21:26.006Z,22.60
2022-09-01T11:24:41.159Z,22.70
2022-09-01T11:27:12.772Z,22.70
2022-09-01T11:30:00.241Z,22.80
2022-09-01T11:32:37.283Z,22.80
2022-09-01T11:35:16.553Z,22.70
2022-09-01T11:37:43.502Z,22.90
2022-09-01T11:40:10.723Z,22.80
2022-09-01T11:42:46.801Z,22.90
2022-09-01T11:45:25.173Z,23.10
2022-09-01T11:47:56.609Z,23.20
2022-09-01T11:50:42.305Z,23.30
2022-09-01T11:53:20.438Z,23.30
2022-09-01T11:55:51.864Z,23.40
2022-09-01T11:58:27.792Z,23.40
2022-09-01T12:00:57.306Z,23.30
2022-09-01T12:03:29.628Z,23.20
2022-09-01T12:06:01.533Z,23.10
2022-09-01T12:08:33.855Z,23.10
2022-09-01T12:11:33.206Z,23.10
2022-09-01T12:14:11.648Z,23.20
2022-09-01T12:16:42.229Z,23.30
2022-09-01T12:19:24.128Z,23.30
2022-09-01T12:22:18.629Z,23.40
2022-09-01T12:24:52.949Z,23.60
2022-09-01T12:27:23.175Z,23.70
2022-09-01T12:29:51.314Z,23.80
2022-09-01T12:32:18.436Z,24.20
2022-09-01T12:34:59.391Z,24.50
2022-09-01T12:37:27.701Z,25.00
2022-09-01T12:39:59.265Z,25.00
2022-09-01T12:42:37.928Z,25.00
2022-09-01T12:45:10.390Z,25.00
2022-09-01T12:47:37.439Z,25.00
2022-09-01T12:50:29.442Z,25.20
2022-09-01T12:53:03.031Z,25.20
2022-09-01T12:55:51.533Z,25.00
2022-09-01T12:58:27.154Z,24.80
2022-09-01T13:01:09.201Z,24.50
2022-09-01T13:04:28.072Z,24.30
2022-09-01T13:07:01.262Z,24.30
2022-09-01T13:09:28.761Z,24.10
2022-09-01T13:12:19.327Z,24.10
2022-09-01T13:14:47.000Z,24.10
2022-09-01T13:17:14.691Z,24.10
2022-09-01T13:19:42.119Z,24.10
2022-09-01T13:22:08.882Z,24.00
2022-09-01T13:24:35.590Z,24.00
2022-09-01T13:27:24.674Z,23.80
2022-09-01T13:29:52.150Z,23.80
2022-09-01T13:32:21.373Z,23.80
2022-09-01T13:34:51.854Z,23.70
2022-09-01T13:37:21.133Z,23.70
2022-09-01T13:39:48.293Z,23.80
2022-09-01T13:42:16.254Z,23.80
2022-09-01T13:44:44.219Z,23.80
2022-09-01T13:50:09.181Z,23.90
2022-09-01T13:52:43.849Z,23.80
2022-09-01T13:55:16.975Z,24.00
2022-09-01T13:57:43.790Z,24.10
2022-09-01T14:00:26.957Z,24.30
2022-09-01T14:02:57.019Z,24.40
2022-09-01T14:05:28.838Z,24.50
2022-09-01T14:07:56.123Z,24.60
2022-09-01T14:10:24.775Z,24.70
2022-09-01T14:12:51.979Z,24.90
2022-09-01T14:15:26.448Z,24.90
2022-09-01T14:17:57.256Z,25.00
2022-09-01T14:20:31.594Z,25.00
2022-09-01T14:23:04.608Z,25.00
2022-09-01T14:25:33.240Z,25.10
2022-09-01T14:28:01.927Z,25.00
2022-09-01T14:30:32.037Z,25.20
2022-09-01T14:33:00.491Z,25.20
2022-09-01T14:35:27.701Z,25.00
2022-09-01T14:37:55.340Z,25.00
2022-09-01T14:40:24.114Z,24.90
2022-09-01T14:42:53.046Z,25.00
2022-09-01T14:45:23.947Z,25.00
2022-09-01T14:47:54.103Z,25.00
2022-09-01T14:50:23.206Z,24.90
2022-09-01T14:52:54.390Z,24.90
2022-09-01T14:55:24.562Z,24.80
2022-09-01T14:57:52.317Z,24.70
2022-09-01T15:00:20.004Z,24.40
2022-09-01T15:02:47.985Z,24.30
2022-09-01T15:05:15.817Z,24.20
2022-09-01T15:07:43.527Z,24.40
2022-09-01T15:10:15.808Z,24.30
2022-09-01T15:12:51.134Z,24.40
2022-09-01T15:15:18.148Z,24.40
2022-09-01T15:17:51.366Z,24.20
2022-09-01T15:20:36.955Z,24.10
2022-09-01T15:23:05.658Z,24.00
2022-09-01T15:25:32.488Z,23.80
2022-09-01T15:27:59.655Z,23.70
2022-09-01T15:30:27.837Z,23.70
2022-09-01T15:32:54.595Z,23.60
2022-09-01T15:35:22.883Z,23.50
2022-09-01T15:37:51.800Z,23.50
2022-09-01T15:40:19.828Z,23.50
2022-09-01T15:42:46.753Z,23.50
2022-09-01T15:45:19.696Z,23.70
2022-09-01T15:47:48.240Z,23.90
2022-09-01T15:50:21.659Z,24.00
2022-09-01T15:53:08.439Z,24.10
2022-09-01T15:55:42.386Z,24.30
2022-09-01T15:58:14.391Z,24.40
2022-09-01T16:00:43.256Z,24.50
2022-09-01T16:03:11.093Z,24.60
2022-09-01T16:05:40.446Z,24.70
2022-09-01T16:08:09.468Z,24.60
2022-09-01T16:10:39.796Z,24.70
2022-09-01T16:13:07.186Z,24.70
2022-09-01T16:15:35.109Z,24.60
2022-09-01T16:18:19.959Z,24.60
2022-09-01T16:21:11.362Z,24.40
2022-09-01T16:23:47.327Z,24.40
2022-09-01T16:26:16.051Z,24.20
2022-09-01T16:28:48.708Z,24.30
2022-09-01T16:31:21.797Z,24.20
2022-09-01T16:34:01.762Z,24.00
2022-09-01T16:36:45.251Z,24.00
2022-09-01T16:39:41.707Z,23.90
2022-09-01T16:42:26.147Z,23.80
2022-09-01T16:45:05.988Z,23.70
2022-09-01T16:48:29.727Z,23.70
2022-09-01T16:51:02.715Z,23.60
2022-09-01T16:54:07.813Z,23.60
2022-09-01T16:56:50.492Z,23.40
2022-09-01T16:59:39.770Z,23.20
2022-09-01T17:02:52.751Z,23.10
2022-09-01T17:05:54.475Z,23.00
2022-09-01T17:08:36.723Z,22.90
2022-09-01T17:11:22.073Z,22.90
2022-09-01T17:13:55.760Z,22.80
2022-09-01T17:16:25.339Z,22.90
2022-09-01T17:19:00.666Z,22.80
2022-09-01T17:21:48.838Z,22.70
2022-09-01T17:24:37.133Z,22.70
2022-09-01T17:27:12.572Z,22.60
2022-09-01T17:29:52.762Z,22.60
2022-09-01T17:33:17.595Z,22.40
2022-09-01T17:36:23.850Z,22.40
2022-09-01T17:39:27.194Z,22.30
2022-09-01T17:42:03.463Z,22.20
2022-09-01T17:44:56.133Z,22.20
2022-09-01T17:47:56.461Z,22.10
2022-09-01T17:50:33.320Z,21.90
2022-09-01T17:53:35.578Z,21.80
2022-09-01T17:59:54.138Z,21.60
2022-09-01T18:02:58.366Z,21.50
2022-09-01T18:05:26.642Z,21.40
2022-09-01T18:08:13.689Z,21.30
2022-09-01T18:10:50.893Z,21.20
2022-09-01T18:14:02.571Z,21.20
2022-09-01T18:16:36.595Z,21.10
2022-09-01T18:19:18.834Z,21.00
2022-09-01T18:22:19.615Z,20.90
2022-09-01T18:24:56.567Z,20.80
2022-09-01T18:27:24.219Z,20.70
2022-09-01T18:29:52.570Z,20.50
2022-09-01T18:32:43.390Z,20.50
2022-09-01T18:35:34.311Z,20.30
2022-09-01T18:38:17.371Z,20.10
2022-09-01T18:41:20.274Z,19.90
2022-09-01T18:44:03.921Z,19.70
2022-09-01T18:47:00.574Z,19.50
2022-09-01T18:49:49.686Z,19.30
2022-09-01T18:52:42.762Z,19.10
2022-09-01T18:55:41.590Z,18.80
2022-09-01T18:58:23.566Z,18.70
2022-09-01T19:01:06.221Z,18.50
2022-09-01T19:03:48.990Z,18.30
2022-09-01T19:06:39.635Z,18.20
2022-09-01T19:09:39.835Z,18.10
2022-09-01T19:12:33.038Z,18.00
2022-09-01T19:15:20.754Z,17.80
2022-09-01T19:18:18.211Z,17.80
2022-09-01T19:21:08.415Z,17.70
2022-09-01T19:24:10.106Z,17.60
2022-09-01T19:26:51.296Z,17.50
2022-09-01T19:29:25.949Z,17.50
2022-09-01T19:32:09.115Z,17.50
2022-09-01T19:34:43.166Z,17.40
2022-09-01T19:37:10.715Z,17.40
2022-09-01T19:39:44.953Z,17.40
2022-09-01T19:42:42.610Z,17.40
2022-09-01T19:45:52.291Z,17.40
2022-09-01T19:48:27.082Z,17.40
2022-09-01T19:51:04.636Z,17.30
2022-09-01T19:54:01.440Z,17.20
2022-09-01T19:56:44.822Z,17.00
2022-09-01T19:59:27.965Z,16.90
2022-09-01T20:02:05.962Z,16.80
2022-09-01T20:04:57.046Z,16.70
2022-09-01T20:07:54.095Z,16.60
2022-09-01T20:10:38.970Z,16.50
2022-09-01T20:13:52.290Z,16.40
2022-09-01T20:16:41.539Z,16.30
2022-09-01T20:19:48.759Z,16.20
2022-09-01T20:22:35.396Z,16.10
2022-09-01T20:25:19.904Z,16.00
2022-09-01T20:28:34.030Z,15.80
2022-09-01T20:31:16.995Z,15.80
2022-09-01T20:33:52.695Z,15.70
2022-09-01T20:36:45.354Z,15.50
2022-09-01T20:39:38.735Z,15.50
2022-09-01T20:42:14.423Z,15.40
2022-09-01T20:45:00.393Z,15.30
2022-09-01T20:47:31.096Z,15.20
2022-09-01T20:50:01.095Z,15.20
2022-09-01T20:53:10.210Z,15.10
2022-09-01T20:55:54.962Z,15.00
2022-09-01T20:58:28.358Z,14.90
2022-09-01T21:01:19.678Z,14.90
2022-09-01T21:04:30.063Z,14.90
2022-09-01T21:07:14.860Z,14.80
2022-09-01T21:10:17.291Z,14.80
2022-09-01T21:13:00.955Z,14.80
2022-09-01T21:15:39.551Z,14.70
2022-09-01T21:18:30.804Z,14.60
2022-09-01T21:21:14.334Z,14.60
2022-09-01T21:23:40.990Z,14.50
2022-09-01T21:26:10.549Z,14.50
2022-09-01T21:28:37.963Z,14.40
2022-09-01T21:31:07.111Z,14.40
2022-09-01T21:33:34.943Z,14.40
2022-09-01T21:36:02.263Z,14.40
2022-09-01T21:38:31.951Z,14.30
2022-09-01T21:41:00.149Z,14.30
2022-09-01T21:43:35.057Z,14.20
2022-09-01T21:46:02.580Z,14.20
2022-09-01T21:48:30.913Z,14.20
2022-09-01T21:51:04.679Z,14.10
2022-09-01T21:53:32.881Z,14.10
2022-09-01T21:55:59.941Z,14.10
2022-09-01T21:58:26.908Z,14.10
2022-09-01T22:00:54.466Z,14.10
2022-09-01T22:03:21.450Z,14.10
2022-09-01T22:05:48.268Z,14.10
2022-09-01T22:08:17.023Z,14.10
2022-09-01T22:10:49.297Z,14.00
2022-09-01T22:13:16.609Z,14.00
2022-09-01T22:15:50.171Z,14.00
2022-09-01T22:18:19.918Z,13.90
2022-09-01T22:20:47.828Z,13.90
2022-09-01T22:23:15.764Z,13.90
2022-09-01T22:25:46.449Z,13.90
2022-09-01T22:28:13.916Z,13.80
2022-09-01T22:30:46.683Z,13.70
2022-09-01T22:33:13.876Z,13.70
2022-09-01T22:35:45.565Z,13.70
2022-09-01T22:38:12.420Z,13.70
2022-09-01T22:40:55.637Z,13.70
2022-09-01T22:43:24.878Z,13.70
2022-09-01T22:45:52.279Z,13.70
2022-09-01T22:48:23.593Z,13.60
2022-09-01T22:50:52.012Z,13.60
2022-09-01T22:53:21.466Z,13.50
2022-09-01T22:55:50.953Z,13.50
2022-09-01T22:58:18.357Z,13.50
2022-09-01T23:00:52.329Z,13.50
2022-09-01T23:03:20.447Z,13.50
2022-09-01T23:05:49.175Z,13.50
2022-09-01T23:08:17.044Z,13.40
2022-09-01T23:10:43.802Z,13.40
2022-09-01T23:13:10.457Z,13.30
2022-09-01T23:15:37.750Z,13.30
2022-09-01T23:18:04.443Z,13.20
2022-09-01T23:20:31.358Z,13.20
2022-09-01T23:22:58.082Z,13.20
2022-09-01T23:25:24.863Z,13.10
2022-09-01T23:27:51.574Z,13.10
2022-09-01T23:30:18.281Z,13.10
2022-09-01T23:32:45.032Z,13.10
2022-09-01T23:35:12.266Z,13.00
2022-09-01T23:37:38.986Z,13.00
2022-09-01T23:40:07.716Z,13.00
2022-09-01T23:42:34.951Z,13.00
2022-09-01T23:45:01.653Z,13.00
2022-09-01T23:47:28.389Z,13.00
2022-09-01T23:49:56.594Z,13.00
2022-09-01T23:52:23.243Z,12.90
2022-09-01T23:54:49.855Z,12.90
2022-09-01T23:57:16.511Z,12.90
2022-09-01T23:59:43.147Z,12.80
